Terminal Aerodrome Forecast
Issued by NWS

Home | Current Version | Previous Version | Text Only | Print | Product List | Glossary On
Versions: 1 2 3 4 5 6 7 8 9 10 11 12 13 14
000
FTUS45 KGJT 282338
TAFASE
TAF
KASE 282338Z 2900/2924 25007KT P6SM FEW250
     FM290300 21008KT P6SM FEW200
     FM291300 24007KT P6SM FEW250
     FM291500 02005KT P6SM FEW250
     FM291600 32007KT P6SM FEW250
     FM291700 34011G19KT P6SM FEW250=

USA.gov is the U.S. government's official web portal to all federal, state and local government web resources and services.